sensor_id;sensor_type;location;lat;lon;timestamp;P1;durP1;ratioP1;P2;durP2;ratioP2
31308;SDS011;17936;52.446;10.840;2022-08-01T00:00:31;6.78;;;3.72;;
31308;SDS011;17936;52.446;10.840;2022-08-01T00:02:57;4.93;;;3.30;;
31308;SDS011;17936;52.446;10.840;2022-08-01T00:05:22;5.38;;;3.45;;
31308;SDS011;17936;52.446;10.840;2022-08-01T00:07:48;5.13;;;4.00;;
31308;SDS011;17936;52.446;10.840;2022-08-01T00:10:14;6.65;;;3.75;;
31308;SDS011;17936;52.446;10.840;2022-08-01T00:12:41;5.30;;;3.47;;
31308;SDS011;17936;52.446;10.840;2022-08-01T00:15:08;7.88;;;3.85;;
31308;SDS011;17936;52.446;10.840;2022-08-01T00:17:35;5.32;;;3.83;;
31308;SDS011;17936;52.446;10.840;2022-08-01T00:20:03;4.75;;;3.83;;
31308;SDS011;17936;52.446;10.840;2022-08-01T00:22:31;4.43;;;3.22;;
31308;SDS011;17936;52.446;10.840;2022-08-01T00:24:58;7.15;;;3.60;;
31308;SDS011;17936;52.446;10.840;2022-08-01T00:27:23;5.70;;;4.13;;
31308;SDS011;17936;52.446;10.840;2022-08-01T00:29:49;4.13;;;3.58;;
31308;SDS011;17936;52.446;10.840;2022-08-01T00:32:14;6.43;;;3.95;;
31308;SDS011;17936;52.446;10.840;2022-08-01T00:34:40;8.00;;;4.43;;
31308;SDS011;17936;52.446;10.840;2022-08-01T00:37:05;6.15;;;4.35;;
31308;SDS011;17936;52.446;10.840;2022-08-01T00:39:31;6.53;;;4.18;;
31308;SDS011;17936;52.446;10.840;2022-08-01T00:41:58;6.03;;;4.63;;
31308;SDS011;17936;52.446;10.840;2022-08-01T00:44:24;7.18;;;4.38;;
31308;SDS011;17936;52.446;10.840;2022-08-01T00:46:50;7.03;;;4.60;;
31308;SDS011;17936;52.446;10.840;2022-08-01T00:49:15;5.30;;;4.80;;
31308;SDS011;17936;52.446;10.840;2022-08-01T00:51:41;9.10;;;4.22;;
31308;SDS011;17936;52.446;10.840;2022-08-01T00:54:07;6.78;;;4.55;;
31308;SDS011;17936;52.446;10.840;2022-08-01T00:56:32;7.13;;;4.43;;
31308;SDS011;17936;52.446;10.840;2022-08-01T00:58:58;6.90;;;4.35;;
31308;SDS011;17936;52.446;10.840;2022-08-01T01:01:24;6.68;;;4.63;;
31308;SDS011;17936;52.446;10.840;2022-08-01T01:03:50;6.95;;;4.70;;
31308;SDS011;17936;52.446;10.840;2022-08-01T01:06:25;5.35;;;4.13;;
31308;SDS011;17936;52.446;10.840;2022-08-01T01:09:02;5.75;;;4.10;;
31308;SDS011;17936;52.446;10.840;2022-08-01T01:17:53;6.18;;;4.30;;
31308;SDS011;17936;52.446;10.840;2022-08-01T01:20:37;7.43;;;4.22;;
31308;SDS011;17936;52.446;10.840;2022-08-01T01:23:21;5.55;;;4.43;;
31308;SDS011;17936;52.446;10.840;2022-08-01T01:29:04;5.95;;;4.20;;
31308;SDS011;17936;52.446;10.840;2022-08-01T01:34:20;5.65;;;4.22;;
31308;SDS011;17936;52.446;10.840;2022-08-01T01:36:48;6.07;;;4.40;;
31308;SDS011;17936;52.446;10.840;2022-08-01T01:39:16;4.40;;;3.70;;
31308;SDS011;17936;52.446;10.840;2022-08-01T01:41:43;8.45;;;4.40;;
31308;SDS011;17936;52.446;10.840;2022-08-01T01:44:10;6.90;;;4.10;;
31308;SDS011;17936;52.446;10.840;2022-08-01T01:46:36;5.82;;;3.80;;
31308;SDS011;17936;52.446;10.840;2022-08-01T01:49:02;8.93;;;4.25;;
31308;SDS011;17936;52.446;10.840;2022-08-01T01:51:29;8.27;;;4.22;;
31308;SDS011;17936;52.446;10.840;2022-08-01T01:53:56;6.55;;;4.18;;
31308;SDS011;17936;52.446;10.840;2022-08-01T01:56:23;6.05;;;4.57;;
31308;SDS011;17936;52.446;10.840;2022-08-01T01:58:50;11.15;;;4.80;;
31308;SDS011;17936;52.446;10.840;2022-08-01T02:01:19;5.97;;;4.05;;
31308;SDS011;17936;52.446;10.840;2022-08-01T02:03:48;6.80;;;4.13;;
31308;SDS011;17936;52.446;10.840;2022-08-01T02:06:16;4.90;;;4.40;;
31308;SDS011;17936;52.446;10.840;2022-08-01T02:08:42;7.10;;;4.60;;
31308;SDS011;17936;52.446;10.840;2022-08-01T02:11:09;9.05;;;4.65;;
31308;SDS011;17936;52.446;10.840;2022-08-01T02:13:43;6.07;;;4.63;;
31308;SDS011;17936;52.446;10.840;2022-08-01T02:16:17;5.75;;;3.97;;
31308;SDS011;17936;52.446;10.840;2022-08-01T02:18:45;6.32;;;3.53;;
31308;SDS011;17936;52.446;10.840;2022-08-01T02:21:12;7.20;;;3.80;;
31308;SDS011;17936;52.446;10.840;2022-08-01T02:23:41;4.03;;;3.63;;
31308;SDS011;17936;52.446;10.840;2022-08-01T02:26:09;4.22;;;3.05;;
31308;SDS011;17936;52.446;10.840;2022-08-01T02:28:59;4.93;;;3.28;;
31308;SDS011;17936;52.446;10.840;2022-08-01T02:31:30;3.45;;;3.03;;
31308;SDS011;17936;52.446;10.840;2022-08-01T02:34:06;6.30;;;3.40;;
31308;SDS011;17936;52.446;10.840;2022-08-01T02:36:34;5.95;;;3.28;;
31308;SDS011;17936;52.446;10.840;2022-08-01T02:39:03;4.90;;;3.38;;
31308;SDS011;17936;52.446;10.840;2022-08-01T02:41:33;5.40;;;3.17;;
31308;SDS011;17936;52.446;10.840;2022-08-01T02:44:05;5.28;;;3.08;;
31308;SDS011;17936;52.446;10.840;2022-08-01T02:46:44;4.13;;;3.33;;
31308;SDS011;17936;52.446;10.840;2022-08-01T02:49:14;4.30;;;3.47;;
31308;SDS011;17936;52.446;10.840;2022-08-01T02:51:41;5.43;;;3.63;;
31308;SDS011;17936;52.446;10.840;2022-08-01T02:54:09;8.43;;;3.92;;
31308;SDS011;17936;52.446;10.840;2022-08-01T02:56:36;5.90;;;4.28;;
31308;SDS011;17936;52.446;10.840;2022-08-01T02:59:04;6.28;;;4.30;;
31308;SDS011;17936;52.446;10.840;2022-08-01T03:01:32;6.28;;;4.88;;
31308;SDS011;17936;52.446;10.840;2022-08-01T03:04:00;7.03;;;4.53;;
31308;SDS011;17936;52.446;10.840;2022-08-01T03:06:26;6.15;;;4.93;;
31308;SDS011;17936;52.446;10.840;2022-08-01T03:08:53;9.00;;;5.05;;
31308;SDS011;17936;52.446;10.840;2022-08-01T03:11:20;8.13;;;5.28;;
31308;SDS011;17936;52.446;10.840;2022-08-01T03:13:49;8.38;;;5.55;;
31308;SDS011;17936;52.446;10.840;2022-08-01T03:16:16;7.28;;;5.85;;
31308;SDS011;17936;52.446;10.840;2022-08-01T03:18:44;6.97;;;6.00;;
31308;SDS011;17936;52.446;10.840;2022-08-01T03:21:11;10.20;;;6.45;;
31308;SDS011;17936;52.446;10.840;2022-08-01T03:23:38;10.23;;;6.47;;
31308;SDS011;17936;52.446;10.840;2022-08-01T03:26:05;9.25;;;6.13;;
31308;SDS011;17936;52.446;10.840;2022-08-01T03:28:31;7.30;;;6.20;;
31308;SDS011;17936;52.446;10.840;2022-08-01T03:30:58;8.07;;;5.95;;
31308;SDS011;17936;52.446;10.840;2022-08-01T03:33:25;7.70;;;5.70;;
31308;SDS011;17936;52.446;10.840;2022-08-01T03:35:52;6.28;;;5.15;;
31308;SDS011;17936;52.446;10.840;2022-08-01T03:38:21;6.90;;;5.03;;
31308;SDS011;17936;52.446;10.840;2022-08-01T03:40:52;6.82;;;4.82;;
31308;SDS011;17936;52.446;10.840;2022-08-01T03:43:30;4.47;;;4.07;;
31308;SDS011;17936;52.446;10.840;2022-08-01T03:46:03;4.47;;;3.47;;
31308;SDS011;17936;52.446;10.840;2022-08-01T03:48:32;3.57;;;3.13;;
31308;SDS011;17936;52.446;10.840;2022-08-01T03:51:04;4.43;;;3.20;;
31308;SDS011;17936;52.446;10.840;2022-08-01T03:53:32;3.22;;;2.92;;
31308;SDS011;17936;52.446;10.840;2022-08-01T03:56:00;3.20;;;2.90;;
31308;SDS011;17936;52.446;10.840;2022-08-01T03:58:27;3.78;;;3.22;;
31308;SDS011;17936;52.446;10.840;2022-08-01T04:00:54;4.25;;;3.35;;
31308;SDS011;17936;52.446;10.840;2022-08-01T04:03:20;4.28;;;2.92;;
31308;SDS011;17936;52.446;10.840;2022-08-01T04:05:46;3.03;;;2.40;;
31308;SDS011;17936;52.446;10.840;2022-08-01T04:08:11;4.05;;;3.10;;
31308;SDS011;17936;52.446;10.840;2022-08-01T04:10:37;4.07;;;2.83;;
31308;SDS011;17936;52.446;10.840;2022-08-01T04:13:03;2.85;;;2.55;;
31308;SDS011;17936;52.446;10.840;2022-08-01T04:15:29;4.43;;;3.15;;
31308;SDS011;17936;52.446;10.840;2022-08-01T04:17:54;4.72;;;2.95;;
31308;SDS011;17936;52.446;10.840;2022-08-01T04:20:20;3.92;;;2.70;;
31308;SDS011;17936;52.446;10.840;2022-08-01T04:22:45;3.05;;;2.30;;
31308;SDS011;17936;52.446;10.840;2022-08-01T04:25:29;2.28;;;1.88;;
31308;SDS011;17936;52.446;10.840;2022-08-01T04:27:58;4.93;;;2.13;;
31308;SDS011;17936;52.446;10.840;2022-08-01T04:30:29;1.85;;;1.52;;
31308;SDS011;17936;52.446;10.840;2022-08-01T04:32:57;3.28;;;1.95;;
31308;SDS011;17936;52.446;10.840;2022-08-01T04:35:24;2.22;;;2.00;;
31308;SDS011;17936;52.446;10.840;2022-08-01T04:37:51;2.47;;;2.05;;
31308;SDS011;17936;52.446;10.840;2022-08-01T04:40:18;2.50;;;2.00;;
31308;SDS011;17936;52.446;10.840;2022-08-01T04:42:46;3.03;;;2.08;;
31308;SDS011;17936;52.446;10.840;2022-08-01T04:45:13;5.05;;;2.50;;
31308;SDS011;17936;52.446;10.840;2022-08-01T04:47:39;3.42;;;2.80;;
31308;SDS011;17936;52.446;10.840;2022-08-01T04:50:07;2.70;;;2.35;;
31308;SDS011;17936;52.446;10.840;2022-08-01T04:52:34;3.35;;;2.47;;
31308;SDS011;17936;52.446;10.840;2022-08-01T04:55:01;3.83;;;2.33;;
31308;SDS011;17936;52.446;10.840;2022-08-01T04:57:28;2.45;;;2.25;;
31308;SDS011;17936;52.446;10.840;2022-08-01T04:59:53;6.13;;;2.78;;
31308;SDS011;17936;52.446;10.840;2022-08-01T05:02:21;4.03;;;2.70;;
31308;SDS011;17936;52.446;10.840;2022-08-01T05:04:47;5.80;;;3.00;;
31308;SDS011;17936;52.446;10.840;2022-08-01T05:07:13;4.38;;;3.17;;
31308;SDS011;17936;52.446;10.840;2022-08-01T05:09:39;4.45;;;3.35;;
31308;SDS011;17936;52.446;10.840;2022-08-01T05:12:10;3.72;;;3.13;;
31308;SDS011;17936;52.446;10.840;2022-08-01T05:14:36;4.50;;;3.53;;
31308;SDS011;17936;52.446;10.840;2022-08-01T05:17:02;5.75;;;3.92;;
31308;SDS011;17936;52.446;10.840;2022-08-01T05:19:29;4.00;;;3.30;;
31308;SDS011;17936;52.446;10.840;2022-08-01T05:22:01;6.35;;;3.53;;
31308;SDS011;17936;52.446;10.840;2022-08-01T05:24:29;4.50;;;3.70;;
31308;SDS011;17936;52.446;10.840;2022-08-01T05:26:56;4.45;;;3.80;;
31308;SDS011;17936;52.446;10.840;2022-08-01T05:29:22;5.30;;;4.15;;
31308;SDS011;17936;52.446;10.840;2022-08-01T05:31:48;5.25;;;3.60;;
31308;SDS011;17936;52.446;10.840;2022-08-01T05:34:14;4.10;;;3.63;;
31308;SDS011;17936;52.446;10.840;2022-08-01T05:36:39;5.57;;;3.78;;
31308;SDS011;17936;52.446;10.840;2022-08-01T05:39:05;4.63;;;3.65;;
31308;SDS011;17936;52.446;10.840;2022-08-01T05:41:31;4.47;;;3.40;;
31308;SDS011;17936;52.446;10.840;2022-08-01T05:43:56;4.85;;;3.78;;
31308;SDS011;17936;52.446;10.840;2022-08-01T05:46:22;6.90;;;4.28;;
31308;SDS011;17936;52.446;10.840;2022-08-01T05:48:47;5.35;;;3.72;;
31308;SDS011;17936;52.446;10.840;2022-08-01T05:51:13;7.70;;;3.78;;
31308;SDS011;17936;52.446;10.840;2022-08-01T05:53:38;4.45;;;3.45;;
31308;SDS011;17936;52.446;10.840;2022-08-01T05:56:04;4.18;;;3.53;;
31308;SDS011;17936;52.446;10.840;2022-08-01T05:58:30;4.22;;;3.13;;
31308;SDS011;17936;52.446;10.840;2022-08-01T06:00:56;5.22;;;3.22;;
31308;SDS011;17936;52.446;10.840;2022-08-01T06:03:22;4.82;;;3.13;;
31308;SDS011;17936;52.446;10.840;2022-08-01T06:05:48;3.38;;;2.92;;
31308;SDS011;17936;52.446;10.840;2022-08-01T06:08:13;4.82;;;3.50;;
31308;SDS011;17936;52.446;10.840;2022-08-01T06:10:39;6.93;;;3.63;;
31308;SDS011;17936;52.446;10.840;2022-08-01T06:13:04;6.88;;;3.70;;
31308;SDS011;17936;52.446;10.840;2022-08-01T06:15:31;5.88;;;3.30;;
31308;SDS011;17936;52.446;10.840;2022-08-01T06:17:57;3.50;;;2.72;;
31308;SDS011;17936;52.446;10.840;2022-08-01T06:20:22;4.18;;;2.63;;
31308;SDS011;17936;52.446;10.840;2022-08-01T06:22:48;3.28;;;2.42;;
31308;SDS011;17936;52.446;10.840;2022-08-01T06:25:14;2.65;;;1.90;;
31308;SDS011;17936;52.446;10.840;2022-08-01T06:27:39;3.08;;;1.90;;
31308;SDS011;17936;52.446;10.840;2022-08-01T06:30:05;2.63;;;1.88;;
31308;SDS011;17936;52.446;10.840;2022-08-01T06:32:32;3.60;;;1.98;;
31308;SDS011;17936;52.446;10.840;2022-08-01T06:34:58;1.85;;;1.65;;
31308;SDS011;17936;52.446;10.840;2022-08-01T06:37:27;2.42;;;1.50;;
31308;SDS011;17936;52.446;10.840;2022-08-01T06:39:56;3.20;;;1.75;;
31308;SDS011;17936;52.446;10.840;2022-08-01T06:42:25;1.95;;;1.55;;
31308;SDS011;17936;52.446;10.840;2022-08-01T06:44:50;2.33;;;1.65;;
31308;SDS011;17936;52.446;10.840;2022-08-01T06:47:16;3.45;;;1.80;;
31308;SDS011;17936;52.446;10.840;2022-08-01T06:49:41;2.38;;;1.67;;
31308;SDS011;17936;52.446;10.840;2022-08-01T06:52:07;2.40;;;1.67;;
31308;SDS011;17936;52.446;10.840;2022-08-01T06:54:32;4.22;;;1.40;;
31308;SDS011;17936;52.446;10.840;2022-08-01T06:56:58;1.52;;;1.42;;
31308;SDS011;17936;52.446;10.840;2022-08-01T06:59:23;2.70;;;1.50;;
31308;SDS011;17936;52.446;10.840;2022-08-01T07:01:49;2.65;;;1.55;;
31308;SDS011;17936;52.446;10.840;2022-08-01T07:04:14;3.97;;;1.25;;
31308;SDS011;17936;52.446;10.840;2022-08-01T07:06:40;1.63;;;0.93;;
31308;SDS011;17936;52.446;10.840;2022-08-01T07:09:06;1.45;;;1.05;;
31308;SDS011;17936;52.446;10.840;2022-08-01T07:11:31;5.93;;;0.95;;
31308;SDS011;17936;52.446;10.840;2022-08-01T07:13:56;1.75;;;1.30;;
31308;SDS011;17936;52.446;10.840;2022-08-01T07:16:23;1.92;;;0.80;;
31308;SDS011;17936;52.446;10.840;2022-08-01T07:18:48;8.93;;;0.88;;
31308;SDS011;17936;52.446;10.840;2022-08-01T07:21:14;2.08;;;0.90;;
31308;SDS011;17936;52.446;10.840;2022-08-01T07:23:39;0.73;;;0.73;;
31308;SDS011;17936;52.446;10.840;2022-08-01T07:26:05;0.60;;;0.60;;
31308;SDS011;17936;52.446;10.840;2022-08-01T07:28:31;0.95;;;0.80;;
31308;SDS011;17936;52.446;10.840;2022-08-01T07:30:56;0.80;;;0.70;;
31308;SDS011;17936;52.446;10.840;2022-08-01T07:33:22;1.92;;;0.73;;
31308;SDS011;17936;52.446;10.840;2022-08-01T07:35:48;3.47;;;0.82;;
31308;SDS011;17936;52.446;10.840;2022-08-01T07:38:13;1.00;;;0.63;;
31308;SDS011;17936;52.446;10.840;2022-08-01T07:40:41;1.63;;;0.80;;
31308;SDS011;17936;52.446;10.840;2022-08-01T07:43:07;1.20;;;0.70;;
31308;SDS011;17936;52.446;10.840;2022-08-01T07:45:33;3.22;;;0.80;;
31308;SDS011;17936;52.446;10.840;2022-08-01T07:48:02;0.52;;;0.52;;
31308;SDS011;17936;52.446;10.840;2022-08-01T07:50:31;0.68;;;0.65;;
31308;SDS011;17936;52.446;10.840;2022-08-01T07:52:57;1.45;;;0.80;;
31308;SDS011;17936;52.446;10.840;2022-08-01T07:55:22;0.60;;;0.60;;
31308;SDS011;17936;52.446;10.840;2022-08-01T07:57:48;2.08;;;0.70;;
31308;SDS011;17936;52.446;10.840;2022-08-01T08:00:15;0.80;;;0.73;;
31308;SDS011;17936;52.446;10.840;2022-08-01T08:02:41;3.95;;;0.70;;
31308;SDS011;17936;52.446;10.840;2022-08-01T08:05:07;1.30;;;0.60;;
31308;SDS011;17936;52.446;10.840;2022-08-01T08:07:33;0.40;;;0.40;;
31308;SDS011;17936;52.446;10.840;2022-08-01T08:09:59;1.73;;;0.50;;
31308;SDS011;17936;52.446;10.840;2022-08-01T08:12:25;1.23;;;0.60;;
31308;SDS011;17936;52.446;10.840;2022-08-01T08:14:50;1.15;;;0.70;;
31308;SDS011;17936;52.446;10.840;2022-08-01T08:17:16;0.60;;;0.60;;
31308;SDS011;17936;52.446;10.840;2022-08-01T08:19:41;1.23;;;0.52;;
31308;SDS011;17936;52.446;10.840;2022-08-01T08:22:07;1.33;;;0.85;;
31308;SDS011;17936;52.446;10.840;2022-08-01T08:24:34;0.80;;;0.70;;
31308;SDS011;17936;52.446;10.840;2022-08-01T08:27:01;0.70;;;0.70;;
31308;SDS011;17936;52.446;10.840;2022-08-01T08:29:28;2.28;;;0.70;;
31308;SDS011;17936;52.446;10.840;2022-08-01T08:31:56;1.10;;;0.60;;
31308;SDS011;17936;52.446;10.840;2022-08-01T08:34:22;1.80;;;0.57;;
31308;SDS011;17936;52.446;10.840;2022-08-01T08:36:48;0.55;;;0.55;;
31308;SDS011;17936;52.446;10.840;2022-08-01T08:39:14;0.63;;;0.50;;
31308;SDS011;17936;52.446;10.840;2022-08-01T08:41:40;0.75;;;0.75;;
31308;SDS011;17936;52.446;10.840;2022-08-01T08:44:06;1.65;;;0.65;;
31308;SDS011;17936;52.446;10.840;2022-08-01T08:46:33;0.77;;;0.68;;
31308;SDS011;17936;52.446;10.840;2022-08-01T08:49:09;0.65;;;0.50;;
31308;SDS011;17936;52.446;10.840;2022-08-01T08:51:39;1.33;;;0.70;;
31308;SDS011;17936;52.446;10.840;2022-08-01T08:54:07;2.22;;;0.80;;
31308;SDS011;17936;52.446;10.840;2022-08-01T08:56:35;1.48;;;0.75;;
31308;SDS011;17936;52.446;10.840;2022-08-01T08:59:03;0.60;;;0.50;;
31308;SDS011;17936;52.446;10.840;2022-08-01T09:01:30;0.75;;;0.70;;
31308;SDS011;17936;52.446;10.840;2022-08-01T09:03:57;2.30;;;0.90;;
31308;SDS011;17936;52.446;10.840;2022-08-01T09:06:23;1.10;;;0.82;;
31308;SDS011;17936;52.446;10.840;2022-08-01T09:08:49;0.88;;;0.80;;
31308;SDS011;17936;52.446;10.840;2022-08-01T09:11:14;1.73;;;0.60;;
31308;SDS011;17936;52.446;10.840;2022-08-01T09:13:40;1.75;;;0.90;;
31308;SDS011;17936;52.446;10.840;2022-08-01T09:16:06;1.00;;;0.82;;
31308;SDS011;17936;52.446;10.840;2022-08-01T09:18:35;0.90;;;0.77;;
31308;SDS011;17936;52.446;10.840;2022-08-01T09:23:36;0.68;;;0.68;;
31308;SDS011;17936;52.446;10.840;2022-08-01T09:26:07;0.93;;;0.60;;
31308;SDS011;17936;52.446;10.840;2022-08-01T09:29:06;0.60;;;0.50;;
31308;SDS011;17936;52.446;10.840;2022-08-01T09:31:40;0.30;;;0.30;;
31308;SDS011;17936;52.446;10.840;2022-08-01T09:34:07;0.80;;;0.40;;
31308;SDS011;17936;52.446;10.840;2022-08-01T09:36:45;1.80;;;0.38;;
31308;SDS011;17936;52.446;10.840;2022-08-01T09:39:21;0.68;;;0.60;;
31308;SDS011;17936;52.446;10.840;2022-08-01T09:41:51;1.27;;;0.50;;
31308;SDS011;17936;52.446;10.840;2022-08-01T09:44:38;1.85;;;0.40;;
31308;SDS011;17936;52.446;10.840;2022-08-01T09:47:06;0.30;;;0.30;;
31308;SDS011;17936;52.446;10.840;2022-08-01T09:49:33;0.73;;;0.40;;
31308;SDS011;17936;52.446;10.840;2022-08-01T09:52:09;3.40;;;0.40;;
31308;SDS011;17936;52.446;10.840;2022-08-01T09:54:44;0.30;;;0.30;;
31308;SDS011;17936;52.446;10.840;2022-08-01T09:57:20;0.35;;;0.25;;
31308;SDS011;17936;52.446;10.840;2022-08-01T09:59:46;1.70;;;0.50;;
31308;SDS011;17936;52.446;10.840;2022-08-01T10:02:27;3.65;;;0.50;;
31308;SDS011;17936;52.446;10.840;2022-08-01T10:04:59;3.47;;;0.43;;
31308;SDS011;17936;52.446;10.840;2022-08-01T10:07:29;0.73;;;0.35;;
31308;SDS011;17936;52.446;10.840;2022-08-01T10:09:55;0.90;;;0.43;;
31308;SDS011;17936;52.446;10.840;2022-08-01T10:12:21;2.83;;;0.43;;
31308;SDS011;17936;52.446;10.840;2022-08-01T10:14:49;1.98;;;0.40;;
31308;SDS011;17936;52.446;10.840;2022-08-01T10:17:17;0.70;;;0.30;;
31308;SDS011;17936;52.446;10.840;2022-08-01T10:19:45;0.50;;;0.50;;
31308;SDS011;17936;52.446;10.840;2022-08-01T10:22:12;1.33;;;0.60;;
31308;SDS011;17936;52.446;10.840;2022-08-01T10:24:41;0.40;;;0.40;;
31308;SDS011;17936;52.446;10.840;2022-08-01T10:27:11;0.57;;;0.40;;
31308;SDS011;17936;52.446;10.840;2022-08-01T10:29:41;1.80;;;0.35;;
31308;SDS011;17936;52.446;10.840;2022-08-01T10:32:10;2.05;;;0.40;;
31308;SDS011;17936;52.446;10.840;2022-08-01T10:34:36;0.60;;;0.43;;
31308;SDS011;17936;52.446;10.840;2022-08-01T10:37:03;1.00;;;0.40;;
31308;SDS011;17936;52.446;10.840;2022-08-01T10:39:30;0.82;;;0.50;;
31308;SDS011;17936;52.446;10.840;2022-08-01T10:41:57;0.77;;;0.50;;
31308;SDS011;17936;52.446;10.840;2022-08-01T10:44:24;0.98;;;0.57;;
31308;SDS011;17936;52.446;10.840;2022-08-01T10:46:52;1.50;;;0.57;;
31308;SDS011;17936;52.446;10.840;2022-08-01T10:49:22;0.30;;;0.30;;
31308;SDS011;17936;52.446;10.840;2022-08-01T10:51:53;1.33;;;0.40;;
31308;SDS011;17936;52.446;10.840;2022-08-01T10:54:19;0.75;;;0.20;;
31308;SDS011;17936;52.446;10.840;2022-08-01T10:56:50;0.45;;;0.40;;
31308;SDS011;17936;52.446;10.840;2022-08-01T10:59:27;0.80;;;0.40;;
31308;SDS011;17936;52.446;10.840;2022-08-01T11:04:31;0.70;;;0.35;;
31308;SDS011;17936;52.446;10.840;2022-08-01T11:07:22;0.80;;;0.40;;
31308;SDS011;17936;52.446;10.840;2022-08-01T11:10:03;0.63;;;0.30;;
31308;SDS011;17936;52.446;10.840;2022-08-01T11:12:37;0.35;;;0.35;;
31308;SDS011;17936;52.446;10.840;2022-08-01T11:17:37;1.23;;;0.22;;
31308;SDS011;17936;52.446;10.840;2022-08-01T11:20:23;1.00;;;0.40;;
31308;SDS011;17936;52.446;10.840;2022-08-01T11:26:10;5.82;;;0.50;;
31308;SDS011;17936;52.446;10.840;2022-08-01T11:30:49;0.50;;;0.30;;
31308;SDS011;17936;52.446;10.840;2022-08-01T11:33:17;2.57;;;0.33;;
31308;SDS011;17936;52.446;10.840;2022-08-01T11:38:41;1.15;;;0.43;;
31308;SDS011;17936;52.446;10.840;2022-08-01T11:41:12;2.13;;;0.45;;
31308;SDS011;17936;52.446;10.840;2022-08-01T11:49:33;1.38;;;0.45;;
31308;SDS011;17936;52.446;10.840;2022-08-01T11:52:06;0.60;;;0.43;;
31308;SDS011;17936;52.446;10.840;2022-08-01T11:54:37;1.05;;;0.40;;
31308;SDS011;17936;52.446;10.840;2022-08-01T11:57:05;1.05;;;0.65;;
31308;SDS011;17936;52.446;10.840;2022-08-01T11:59:37;1.50;;;0.50;;
31308;SDS011;17936;52.446;10.840;2022-08-01T12:02:16;0.77;;;0.38;;
31308;SDS011;17936;52.446;10.840;2022-08-01T12:07:15;0.82;;;0.50;;
31308;SDS011;17936;52.446;10.840;2022-08-01T12:09:41;1.70;;;0.52;;
31308;SDS011;17936;52.446;10.840;2022-08-01T12:12:07;1.40;;;0.52;;
31308;SDS011;17936;52.446;10.840;2022-08-01T12:14:33;1.60;;;0.60;;
31308;SDS011;17936;52.446;10.840;2022-08-01T12:16:59;5.10;;;0.80;;
31308;SDS011;17936;52.446;10.840;2022-08-01T12:19:24;3.70;;;0.73;;
31308;SDS011;17936;52.446;10.840;2022-08-01T12:22:06;3.20;;;0.80;;
31308;SDS011;17936;52.446;10.840;2022-08-01T12:24:36;2.13;;;0.68;;
31308;SDS011;17936;52.446;10.840;2022-08-01T12:27:03;3.33;;;0.90;;
31308;SDS011;17936;52.446;10.840;2022-08-01T12:29:31;2.78;;;0.68;;
31308;SDS011;17936;52.446;10.840;2022-08-01T12:31:57;2.95;;;0.70;;
31308;SDS011;17936;52.446;10.840;2022-08-01T12:34:27;0.85;;;0.47;;
31308;SDS011;17936;52.446;10.840;2022-08-01T12:36:57;1.15;;;0.40;;
31308;SDS011;17936;52.446;10.840;2022-08-01T12:39:33;3.08;;;0.80;;
31308;SDS011;17936;52.446;10.840;2022-08-01T12:41:59;1.63;;;0.50;;
31308;SDS011;17936;52.446;10.840;2022-08-01T12:44:26;1.67;;;0.63;;
31308;SDS011;17936;52.446;10.840;2022-08-01T12:46:54;4.72;;;0.80;;
31308;SDS011;17936;52.446;10.840;2022-08-01T12:49:20;2.85;;;0.70;;
31308;SDS011;17936;52.446;10.840;2022-08-01T12:51:46;3.00;;;0.82;;
31308;SDS011;17936;52.446;10.840;2022-08-01T12:54:12;2.03;;;0.80;;
31308;SDS011;17936;52.446;10.840;2022-08-01T12:56:38;3.92;;;0.50;;
31308;SDS011;17936;52.446;10.840;2022-08-01T13:01:53;2.45;;;0.90;;
31308;SDS011;17936;52.446;10.840;2022-08-01T13:04:19;2.50;;;0.82;;
31308;SDS011;17936;52.446;10.840;2022-08-01T13:06:46;2.25;;;0.82;;
31308;SDS011;17936;52.446;10.840;2022-08-01T13:09:12;6.07;;;0.90;;
31308;SDS011;17936;52.446;10.840;2022-08-01T13:11:39;131.07;;;11.52;;
31308;SDS011;17936;52.446;10.840;2022-08-01T13:14:06;7.07;;;1.35;;
31308;SDS011;17936;52.446;10.840;2022-08-01T13:16:32;4.57;;;0.90;;
31308;SDS011;17936;52.446;10.840;2022-08-01T13:19:10;2.75;;;0.90;;
31308;SDS011;17936;52.446;10.840;2022-08-01T13:21:35;4.13;;;0.93;;
31308;SDS011;17936;52.446;10.840;2022-08-01T13:26:39;3.28;;;0.80;;
31308;SDS011;17936;52.446;10.840;2022-08-01T13:29:13;1.70;;;0.68;;
31308;SDS011;17936;52.446;10.840;2022-08-01T13:32:18;2.58;;;0.70;;
31308;SDS011;17936;52.446;10.840;2022-08-01T13:34:45;3.65;;;0.68;;
31308;SDS011;17936;52.446;10.840;2022-08-01T13:37:11;1.80;;;0.60;;
31308;SDS011;17936;52.446;10.840;2022-08-01T13:39:36;3.15;;;0.90;;
31308;SDS011;17936;52.446;10.840;2022-08-01T13:42:05;2.25;;;0.90;;
31308;SDS011;17936;52.446;10.840;2022-08-01T13:44:34;4.93;;;1.02;;
31308;SDS011;17936;52.446;10.840;2022-08-01T13:47:01;2.67;;;0.73;;
31308;SDS011;17936;52.446;10.840;2022-08-01T13:49:27;3.10;;;0.73;;
31308;SDS011;17936;52.446;10.840;2022-08-01T13:51:53;3.08;;;0.70;;
31308;SDS011;17936;52.446;10.840;2022-08-01T13:54:18;1.67;;;0.80;;
31308;SDS011;17936;52.446;10.840;2022-08-01T13:56:44;2.28;;;0.57;;
31308;SDS011;17936;52.446;10.840;2022-08-01T13:59:09;2.17;;;0.90;;
31308;SDS011;17936;52.446;10.840;2022-08-01T14:01:35;2.58;;;0.90;;
31308;SDS011;17936;52.446;10.840;2022-08-01T14:04:00;1.33;;;0.50;;
31308;SDS011;17936;52.446;10.840;2022-08-01T14:06:27;2.42;;;0.90;;
31308;SDS011;17936;52.446;10.840;2022-08-01T14:08:53;3.30;;;0.80;;
31308;SDS011;17936;52.446;10.840;2022-08-01T14:11:18;3.25;;;0.80;;
31308;SDS011;17936;52.446;10.840;2022-08-01T14:13:44;3.45;;;0.77;;
31308;SDS011;17936;52.446;10.840;2022-08-01T14:16:09;2.20;;;0.73;;
31308;SDS011;17936;52.446;10.840;2022-08-01T14:18:35;3.15;;;1.08;;
31308;SDS011;17936;52.446;10.840;2022-08-01T14:21:01;2.45;;;0.98;;
31308;SDS011;17936;52.446;10.840;2022-08-01T14:23:26;3.03;;;0.77;;
31308;SDS011;17936;52.446;10.840;2022-08-01T14:25:52;1.52;;;0.73;;
31308;SDS011;17936;52.446;10.840;2022-08-01T14:28:18;2.72;;;1.00;;
31308;SDS011;17936;52.446;10.840;2022-08-01T14:30:44;2.75;;;1.10;;
31308;SDS011;17936;52.446;10.840;2022-08-01T14:33:10;6.45;;;1.48;;
31308;SDS011;17936;52.446;10.840;2022-08-01T14:35:35;2.20;;;1.02;;
31308;SDS011;17936;52.446;10.840;2022-08-01T14:38:01;3.97;;;1.00;;
31308;SDS011;17936;52.446;10.840;2022-08-01T14:40:27;5.03;;;1.10;;
31308;SDS011;17936;52.446;10.840;2022-08-01T14:42:52;2.08;;;0.80;;
31308;SDS011;17936;52.446;10.840;2022-08-01T14:45:18;3.03;;;1.00;;
31308;SDS011;17936;52.446;10.840;2022-08-01T14:47:44;3.13;;;0.98;;
31308;SDS011;17936;52.446;10.840;2022-08-01T14:50:10;4.57;;;1.25;;
31308;SDS011;17936;52.446;10.840;2022-08-01T14:52:37;4.53;;;1.20;;
31308;SDS011;17936;52.446;10.840;2022-08-01T14:55:05;2.72;;;1.10;;
31308;SDS011;17936;52.446;10.840;2022-08-01T14:57:32;5.10;;;1.23;;
31308;SDS011;17936;52.446;10.840;2022-08-01T14:59:58;3.80;;;1.05;;
31308;SDS011;17936;52.446;10.840;2022-08-01T15:02:24;2.03;;;0.85;;
31308;SDS011;17936;52.446;10.840;2022-08-01T15:04:50;4.35;;;1.08;;
31308;SDS011;17936;52.446;10.840;2022-08-01T15:07:16;2.17;;;0.95;;
31308;SDS011;17936;52.446;10.840;2022-08-01T15:09:42;7.43;;;1.52;;
31308;SDS011;17936;52.446;10.840;2022-08-01T15:12:08;2.90;;;1.20;;
31308;SDS011;17936;52.446;10.840;2022-08-01T15:14:34;4.05;;;1.20;;
31308;SDS011;17936;52.446;10.840;2022-08-01T15:17:19;2.63;;;1.13;;
31308;SDS011;17936;52.446;10.840;2022-08-01T15:19:47;3.15;;;1.20;;